TimeEST,TemperatureF,Dew PointF,Humidity,Sea Level PressureIn,VisibilityMPH,Wind Direction,Wind SpeedMPH,Gust SpeedMPH,PrecipitationIn,Events,Conditions,WindDirDegrees,DateUTC
12:52 AM,26.1,23.0,88,30.21,10.0,Calm,Calm,-,N/A,,Clear,0,2013-11-16 05:52:00
1:52 AM,28.0,24.1,85,30.20,10.0,Calm,Calm,-,N/A,,Clear,0,2013-11-16 06:52:00
2:52 AM,28.0,25.0,88,30.22,10.0,Calm,Calm,-,N/A,,Clear,0,2013-11-16 07:52:00
3:52 AM,28.9,25.0,85,30.23,10.0,Calm,Calm,-,N/A,,Partly Cloudy,0,2013-11-16 08:52:00
4:52 AM,28.9,26.1,89,30.26,10.0,Calm,Calm,-,N/A,,Mostly Cloudy,0,2013-11-16 09:52:00
5:52 AM,28.9,26.1,89,30.28,10.0,Calm,Calm,-,N/A,,Mostly Cloudy,0,2013-11-16 10:52:00
6:52 AM,28.9,26.1,89,30.30,10.0,Calm,Calm,-,N/A,,Scattered Clouds,0,2013-11-16 11:52:00
7:52 AM,30.9,27.0,85,30.30,10.0,Calm,Calm,-,N/A,,Overcast,0,2013-11-16 12:52:00
8:52 AM,33.1,27.0,78,30.30,10.0,NNW,3.5,-,N/A,,Overcast,340,2013-11-16 13:52:00
9:52 AM,37.9,28.9,70,30.32,10.0,Calm,Calm,-,N/A,,Clear,0,2013-11-16 14:52:00
10:52 AM,46.0,28.9,51,30.31,10.0,Calm,Calm,-,N/A,,Clear,0,2013-11-16 15:52:00
11:52 AM,52.0,21.9,31,30.28,10.0,Calm,Calm,-,N/A,,Clear,0,2013-11-16 16:52:00
12:52 PM,55.0,23.0,29,30.27,10.0,South,5.8,-,N/A,,Clear,170,2013-11-16 17:52:00
1:52 PM,55.9,21.9,27,30.26,10.0,NW,3.5,-,N/A,,Clear,320,2013-11-16 18:52:00
2:52 PM,55.9,19.9,25,30.26,10.0,SW,3.5,-,N/A,,Clear,230,2013-11-16 19:52:00
3:52 PM,46.0,28.0,50,30.28,10.0,Calm,Calm,-,N/A,,Clear,0,2013-11-16 20:52:00
4:52 PM,32.0,26.1,79,30.31,10.0,Calm,Calm,-,N/A,,Clear,0,2013-11-16 21:52:00
5:52 PM,28.9,23.0,78,30.32,10.0,Calm,Calm,-,N/A,,Clear,0,2013-11-16 22:52:00
6:52 PM,27.0,21.9,81,30.33,10.0,Calm,Calm,-,N/A,,Clear,0,2013-11-16 23:52:00
7:52 PM,27.0,23.0,85,30.34,10.0,Calm,Calm,-,N/A,,Clear,0,2013-11-17 00:52:00
8:52 PM,27.0,23.0,85,30.33,10.0,Calm,Calm,-,N/A,,Clear,0,2013-11-17 01:52:00
9:52 PM,24.1,21.0,88,30.34,10.0,Calm,Calm,-,N/A,,Clear,0,2013-11-17 02:52:00
10:52 PM,24.1,21.0,88,30.33,10.0,Calm,Calm,-,N/A,,Clear,0,2013-11-17 03:52:00
11:52 PM,21.9,19.0,89,30.34,10.0,Calm,Calm,-,N/A,,Clear,0,2013-11-17 04:52:00